NSCO2: Spavinaw Creek nr Eucha OK

                                SHEF ID:       NSCO2     Spavinaw Creek near Eucha, OK
STATION TYPE:

PRECIP ELEVATION STAGE STAGE(2) RIV-FLOW WTR-TEMP DIS-OXY BAT-LOAD
in ft ft ft cfs F mg/l volt
Ccp-Rev Ccp-Rev Ccp-Rev Ccp-Rev Ccp-Rev Ccp-Rev Ccp-Rev Ccp-Rev
(America/Chicago)
04/25 00:00 ---- ---- 11.83 12.01 2464 64.40 12.81 ----
04/25 01:00 ---- ---- 11.83 12.02 2464 64.40 12.73 ----
04/25 02:00 ---- ---- 11.79 12.01 2431 64.40 12.73 ----
04/25 03:00 ---- ---- 11.77 11.98 2415 64.40 12.73 ----
04/25 04:00 ---- ---- 11.77 11.99 2415 64.40 12.73 ----
04/25 05:00 ---- ---- 11.79 11.99 2431 64.40 12.65 ----
04/25 06:00 ---- ---- 11.74 11.98 2391 64.40 12.65 ----
04/25 07:00 ---- ---- 11.72 11.96 2375 64.40 12.65 ----
04/25 08:00 ---- ---- 11.71 11.94 2367 64.40 13.05 ----
04/25 09:00 ---- ---- 11.73 11.93 2383 64.40 13.53 ----
04/25 10:00 ---- ---- 11.68 11.95 2343 64.40 13.60 ----
04/25 11:00 ---- ---- 11.07 11.24 1880 64.40 13.92 ----
04/25 12:00 ---- ---- 10.99 11.22 1823 64.40 13.68 ----
04/25 13:00 ---- ---- 10.97 11.20 1810 64.40 13.60 ----
04/25 14:00 ---- ---- 11.01 11.18 1837 64.40 13.60 ----
04/25 15:00 ---- ---- 11.02 11.20 1844 64.40 13.29 ----
04/25 16:00 ---- ---- 11.00 11.18 1830 64.40 13.21 ----
04/25 17:00 ---- ---- 11.00 11.16 1830 64.40 12.97 ----
04/25 18:00 ---- ---- 11.04 11.20 1859 64.40 12.97 ----
04/25 19:00 ---- ---- 11.03 11.19 1851 64.40 12.89 ----
04/25 20:00 ---- ---- 11.03 11.20 1851 64.40 12.81 ----
04/25 21:00 ---- ---- 11.08 11.21 1887 64.40 12.81 ----
04/25 22:00 ---- ---- 11.10 11.25 1902 ---- ---- ----
04/25 23:00 ---- ---- ---- ---- ---- ---- ---- ----
Data processed at Sun 26Apr2026 03:02 GMT

NOTICE: If you are parsing this page

Please convert to using our Data API. Starting early 2026 we will be migrating to: https://water.usace.army.mil with modern pages rendered in JavaScript. When this migration completes you will no longer be able to scrape this page! CWMSDataAPI (CDA)

Timeseries IDs (TSIDs)

TSIDs used from left to right in the data table
BEUC.Precip-Inc.Total.1Hour.1Hour.Ccp-Rev
BEUC.Stage.Inst.1Hour.0.Ccp-Rev
BEUC.Stage-Alt.Inst.1Hour.0.Ccp-Rev
BEUC.Flow.Inst.1Hour.0.Ccp-Rev
BEUC.Temp-Water.Inst.1Hour.0.Ccp-Rev
BEUC.Conc-DO.Inst.1Hour.0.Ccp-Rev
BEUC.Volt-Battery Load.Inst.1Hour.0.Ccp-Rev

                            

All information presented herein is the property of the government of the United States of America and may be revised or deleted at any time without prior notice. Dissemination of this information without the expressed written consent of the Public Affairs Office, Tulsa District U.S. Army Corps of Engineers is strictly prohibited. These data are gathered electronically and, as presented, have NOT undergone any form of quality control. These data are NOT guaranteed to be valid or correct.